createdAt,value
2023-03-25T00:00:49.937Z,1.05
2023-03-25T00:02:23.539Z,0.93
2023-03-25T00:03:55.509Z,1.05
2023-03-25T00:05:28.110Z,0.80
2023-03-25T00:07:00.114Z,0.90
2023-03-25T00:08:32.482Z,0.90
2023-03-25T00:10:04.659Z,1.08
2023-03-25T00:11:36.532Z,1.00
2023-03-25T00:13:08.574Z,0.90
2023-03-25T00:14:40.397Z,1.10
2023-03-25T00:16:12.268Z,1.08
2023-03-25T00:17:44.420Z,1.10
2023-03-25T00:19:16.367Z,0.70
2023-03-25T00:20:52.778Z,1.10
2023-03-25T00:22:24.581Z,0.95
2023-03-25T00:23:56.487Z,1.40
2023-03-25T00:25:28.383Z,0.75
2023-03-25T00:27:00.168Z,1.50
2023-03-25T00:28:35.325Z,0.98
2023-03-25T00:30:09.117Z,1.10
2023-03-25T00:31:41.680Z,0.90
2023-03-25T00:33:18.309Z,1.10
2023-03-25T00:34:50.148Z,1.10
2023-03-25T00:36:21.996Z,1.15
2023-03-25T00:37:57.932Z,1.00
2023-03-25T00:39:29.844Z,0.80
2023-03-25T00:41:25.838Z,1.00
2023-03-25T00:42:57.848Z,0.73
2023-03-25T00:44:30.437Z,1.05
2023-03-25T00:46:02.409Z,0.75
2023-03-25T00:47:34.279Z,0.75
2023-03-25T00:49:07.540Z,0.80
2023-03-25T00:50:39.356Z,0.93
2023-03-25T00:52:11.178Z,1.08
2023-03-25T00:53:42.972Z,0.85
2023-03-25T00:55:15.460Z,0.77
2023-03-25T00:56:47.403Z,0.98
2023-03-25T00:58:19.217Z,0.80
2023-03-25T00:59:51.649Z,1.40
2023-03-25T01:01:29.635Z,1.10
2023-03-25T01:03:04.433Z,0.80
2023-03-25T01:04:41.416Z,1.08
2023-03-25T01:06:17.113Z,0.68
2023-03-25T01:07:49.710Z,0.82
2023-03-25T01:09:21.906Z,0.88
2023-03-25T01:10:56.607Z,0.88
2023-03-25T01:12:28.686Z,0.93
2023-03-25T01:14:02.135Z,0.90
2023-03-25T01:15:34.127Z,1.10
2023-03-25T01:17:06.179Z,1.23
2023-03-25T01:18:38.867Z,0.93
2023-03-25T01:20:11.062Z,1.08
2023-03-25T01:21:42.867Z,1.17
2023-03-25T01:23:14.722Z,1.20
2023-03-25T01:24:46.656Z,1.05
2023-03-25T01:26:20.077Z,0.85
2023-03-25T01:27:52.098Z,1.10
2023-03-25T01:29:24.391Z,0.95
2023-03-25T01:31:06.520Z,1.13
2023-03-25T01:32:38.991Z,1.10
2023-03-25T01:34:11.378Z,1.00
2023-03-25T01:35:43.414Z,0.90
2023-03-25T01:37:15.487Z,0.88
2023-03-25T01:38:48.315Z,1.00
2023-03-25T01:40:26.529Z,1.33
2023-03-25T01:41:58.429Z,1.05
2023-03-25T01:43:32.038Z,1.10
2023-03-25T01:45:21.298Z,1.10
2023-03-25T01:46:54.360Z,0.80
2023-03-25T01:48:36.083Z,0.80
2023-03-25T01:50:08.958Z,0.98
2023-03-25T01:51:45.785Z,0.75
2023-03-25T01:53:18.060Z,1.00
2023-03-25T01:54:52.432Z,1.00
2023-03-25T01:56:30.950Z,0.90
2023-03-25T01:58:07.689Z,1.20
2023-03-25T01:59:40.445Z,1.00
2023-03-25T02:01:15.433Z,1.00
2023-03-25T02:02:47.742Z,1.00
2023-03-25T02:04:27.661Z,0.93
2023-03-25T02:06:09.088Z,1.10
2023-03-25T02:09:18.315Z,1.10
2023-03-25T02:10:50.501Z,1.30
2023-03-25T02:12:22.287Z,1.20
2023-03-25T02:13:58.866Z,1.00
2023-03-25T02:15:41.341Z,1.20
2023-03-25T02:17:29.319Z,1.10
2023-03-25T02:19:22.717Z,1.10
2023-03-25T02:21:25.465Z,1.15
2023-03-25T02:23:05.484Z,1.23
2023-03-25T02:24:47.142Z,1.00
2023-03-25T02:26:44.159Z,1.10
2023-03-25T02:28:40.197Z,0.85
2023-03-25T02:30:38.459Z,0.90
2023-03-25T02:32:31.106Z,0.90
2023-03-25T02:34:24.682Z,1.10
2023-03-25T02:36:23.974Z,1.05
2023-03-25T02:38:14.054Z,1.20
2023-03-25T02:40:11.041Z,1.10
2023-03-25T02:41:48.863Z,0.90
2023-03-25T02:43:46.090Z,0.80
2023-03-25T02:45:24.652Z,0.85
2023-03-25T02:51:25.433Z,1.13
2023-03-25T02:53:06.288Z,0.80
2023-03-25T02:54:41.675Z,1.17
2023-03-25T02:56:17.218Z,1.15
2023-03-25T02:57:53.074Z,0.93
2023-03-25T02:59:30.273Z,0.70
2023-03-25T03:01:03.364Z,0.80
2023-03-25T03:02:35.500Z,0.77
2023-03-25T03:04:07.697Z,1.00
2023-03-25T03:05:44.473Z,0.80
2023-03-25T03:07:24.180Z,1.02
2023-03-25T03:09:12.558Z,0.70
2023-03-25T03:11:03.793Z,0.98
2023-03-25T03:12:55.794Z,0.90
2023-03-25T03:15:00.892Z,0.77
2023-03-25T03:16:58.748Z,0.90
2023-03-25T03:18:46.266Z,0.90
2023-03-25T03:20:45.225Z,0.85
2023-03-25T03:22:39.676Z,0.80
2023-03-25T03:24:32.667Z,0.75
2023-03-25T03:26:24.450Z,0.63
2023-03-25T03:28:05.854Z,0.50
2023-03-25T03:29:48.856Z,0.90
2023-03-25T03:31:50.824Z,0.70
2023-03-25T03:33:50.855Z,0.70
2023-03-25T03:35:32.850Z,0.63
2023-03-25T03:37:07.209Z,0.60
2023-03-25T03:38:43.509Z,0.55
2023-03-25T03:40:19.985Z,0.60
2023-03-25T03:41:55.554Z,0.60
2023-03-25T03:43:42.280Z,0.60
2023-03-25T03:45:19.131Z,0.50
2023-03-25T03:46:55.530Z,0.55
2023-03-25T03:48:38.787Z,0.70
2023-03-25T03:50:16.141Z,0.50
2023-03-25T03:51:56.814Z,0.75
2023-03-25T03:53:40.962Z,0.73
2023-03-25T03:55:29.422Z,0.75
2023-03-25T03:57:21.055Z,0.40
2023-03-25T04:00:32.528Z,0.60
2023-03-25T04:02:14.404Z,0.30
2023-03-25T04:03:57.217Z,0.47
2023-03-25T04:05:31.120Z,0.45
2023-03-25T04:07:14.878Z,0.63
2023-03-25T04:08:59.240Z,0.60
2023-03-25T04:10:39.570Z,0.43
2023-03-25T04:12:19.500Z,0.35
2023-03-25T04:13:55.874Z,0.40
2023-03-25T04:15:27.723Z,0.57
2023-03-25T04:16:59.915Z,0.40
2023-03-25T04:18:33.905Z,0.50
2023-03-25T04:20:11.493Z,0.50
2023-03-25T04:21:43.242Z,0.38
2023-03-25T04:23:16.642Z,0.20
2023-03-25T04:24:55.183Z,0.43
2023-03-25T04:26:34.345Z,0.47
2023-03-25T04:28:07.330Z,0.40
2023-03-25T04:29:40.914Z,0.57
2023-03-25T04:31:17.961Z,0.40
2023-03-25T04:32:49.744Z,0.50
2023-03-25T04:34:21.621Z,0.50
2023-03-25T04:35:53.699Z,0.40
2023-03-25T04:37:26.503Z,0.38
2023-03-25T04:38:58.218Z,0.30
2023-03-25T04:40:30.274Z,0.30
2023-03-25T04:42:03.275Z,0.40
2023-03-25T04:43:35.083Z,0.25
2023-03-25T04:45:07.609Z,0.30
2023-03-25T04:49:46.044Z,0.30
2023-03-25T04:51:17.753Z,0.43
2023-03-25T04:52:50.645Z,0.32
2023-03-25T04:54:23.604Z,0.60
2023-03-25T04:55:56.377Z,0.40
2023-03-25T04:57:28.127Z,0.35
2023-03-25T04:58:59.889Z,0.20
2023-03-25T05:00:31.808Z,0.30
2023-03-25T05:02:06.027Z,0.40
2023-03-25T05:03:40.177Z,0.30
2023-03-25T05:05:18.450Z,0.40
2023-03-25T05:06:51.473Z,0.30
2023-03-25T05:08:23.307Z,0.20
2023-03-25T05:09:55.073Z,0.25
2023-03-25T05:11:26.799Z,0.30
2023-03-25T05:13:00.481Z,0.13
2023-03-25T05:14:32.250Z,0.50
2023-03-25T05:16:04.262Z,0.30
2023-03-25T05:17:36.122Z,0.30
2023-03-25T05:19:08.768Z,0.20
2023-03-25T05:20:42.662Z,0.15
2023-03-25T05:22:14.660Z,0.30
2023-03-25T05:23:46.525Z,0.10
2023-03-25T05:25:18.383Z,0.20
2023-03-25T05:26:50.406Z,0.13
2023-03-25T05:28:22.189Z,0.20
2023-03-25T05:29:54.198Z,0.20
2023-03-25T05:31:25.948Z,0.10
2023-03-25T05:33:00.269Z,0.10
2023-03-25T05:34:32.118Z,0.30
2023-03-25T05:36:04.942Z,0.10
2023-03-25T05:37:38.013Z,0.25
2023-03-25T05:39:11.111Z,0.20
2023-03-25T05:40:43.056Z,0.10
2023-03-25T05:42:15.171Z,0.28
2023-03-25T05:43:47.977Z,0.30
2023-03-25T05:45:21.142Z,0.20
2023-03-25T05:46:53.039Z,0.10
2023-03-25T05:48:24.853Z,0.10
2023-03-25T05:49:56.711Z,0.10
2023-03-25T05:51:34.061Z,0.10
2023-03-25T05:53:06.087Z,0.10
2023-03-25T05:54:41.774Z,0.20
2023-03-25T05:56:13.593Z,0.10
2023-03-25T05:57:45.396Z,0.10
2023-03-25T05:59:17.642Z,0.10
2023-03-25T06:00:49.776Z,0.10
2023-03-25T06:02:22.421Z,0.10
2023-03-25T06:03:57.503Z,0.10
2023-03-25T06:05:30.335Z,0.00
2023-03-25T06:07:03.942Z,0.20
2023-03-25T06:08:35.797Z,0.20
2023-03-25T06:10:08.297Z,0.17
2023-03-25T06:11:40.226Z,0.20
2023-03-25T06:13:12.038Z,0.38
2023-03-25T06:14:45.619Z,0.65
2023-03-25T06:16:22.715Z,0.40
2023-03-25T06:17:58.973Z,0.13
2023-03-25T06:19:30.851Z,0.20
2023-03-25T06:21:03.409Z,0.10
2023-03-25T06:22:37.874Z,0.20
2023-03-25T06:24:09.682Z,0.30
2023-03-25T06:25:41.504Z,0.15
2023-03-25T06:27:16.512Z,0.40
2023-03-25T06:28:48.704Z,0.10
2023-03-25T06:30:21.825Z,0.20
2023-03-25T06:31:53.684Z,0.17
2023-03-25T06:33:42.789Z,0.13
2023-03-25T06:35:20.012Z,0.22
2023-03-25T06:36:54.258Z,0.20
2023-03-25T06:38:26.466Z,0.20
2023-03-25T06:40:18.604Z,0.25
2023-03-25T06:41:51.458Z,0.20
2023-03-25T06:45:25.660Z,0.20
2023-03-25T06:47:16.286Z,0.30
2023-03-25T06:48:56.944Z,0.22
2023-03-25T06:50:28.761Z,0.30
2023-03-25T06:52:00.761Z,0.20
2023-03-25T06:53:32.992Z,0.38
2023-03-25T06:55:05.237Z,0.10
2023-03-25T06:56:37.161Z,0.30
2023-03-25T06:58:09.138Z,0.30
2023-03-25T06:59:41.011Z,0.20
2023-03-25T07:01:13.112Z,0.28
2023-03-25T07:02:44.942Z,0.20
2023-03-25T07:04:18.408Z,0.20
2023-03-25T07:05:51.519Z,0.20
2023-03-25T07:07:23.470Z,0.30
2023-03-25T07:08:55.325Z,0.30
2023-03-25T07:10:27.434Z,0.20
2023-03-25T07:11:59.249Z,0.30
2023-03-25T07:13:31.501Z,0.30
2023-03-25T07:15:03.500Z,0.40
2023-03-25T07:16:36.430Z,0.40
2023-03-25T07:18:08.299Z,0.40
2023-03-25T07:19:40.098Z,0.30
2023-03-25T07:21:11.945Z,0.30
2023-03-25T07:22:43.875Z,0.38
2023-03-25T07:24:15.922Z,0.38
2023-03-25T07:25:48.232Z,0.28
2023-03-25T07:27:20.065Z,0.20
2023-03-25T07:29:01.364Z,0.30
2023-03-25T07:30:33.196Z,0.30
2023-03-25T07:32:05.465Z,0.55
2023-03-25T07:33:37.401Z,0.25
2023-03-25T07:35:09.685Z,0.20
2023-03-25T07:36:41.459Z,0.43
2023-03-25T07:38:13.233Z,0.20
2023-03-25T07:39:45.027Z,0.28
2023-03-25T07:41:16.828Z,0.30
2023-03-25T07:43:01.449Z,0.20
2023-03-25T07:44:54.267Z,0.30
2023-03-25T07:46:27.515Z,0.30
2023-03-25T07:48:02.674Z,0.30
2023-03-25T07:49:34.507Z,0.40
2023-03-25T07:51:06.649Z,0.30
2023-03-25T07:52:38.410Z,0.43
2023-03-25T07:54:10.824Z,0.50
2023-03-25T07:55:42.599Z,0.50
2023-03-25T07:57:14.472Z,0.28
2023-03-25T07:58:46.644Z,0.28
2023-03-25T08:00:18.810Z,0.40
2023-03-25T08:01:50.644Z,0.30
2023-03-25T08:03:23.229Z,0.45
2023-03-25T08:04:56.080Z,0.30
2023-03-25T08:06:27.885Z,0.30
2023-03-25T08:08:02.547Z,0.40
2023-03-25T08:09:34.455Z,0.30
2023-03-25T08:11:06.773Z,0.30
2023-03-25T08:12:38.576Z,0.30
2023-03-25T08:14:10.472Z,0.40
2023-03-25T08:15:42.312Z,0.20
2023-03-25T08:17:14.361Z,0.20
2023-03-25T08:18:52.929Z,0.30
2023-03-25T08:20:24.765Z,0.20
2023-03-25T08:21:56.578Z,0.20
2023-03-25T08:23:28.397Z,0.15
2023-03-25T08:25:00.191Z,0.30
2023-03-25T08:26:33.973Z,0.25
2023-03-25T08:28:06.549Z,0.40
2023-03-25T08:29:39.570Z,0.30
2023-03-25T08:31:12.109Z,0.43
2023-03-25T08:32:46.445Z,0.40
2023-03-25T08:34:21.224Z,0.35
2023-03-25T08:35:53.486Z,0.60
2023-03-25T08:37:26.145Z,0.38
2023-03-25T08:38:57.970Z,0.30
2023-03-25T08:40:29.755Z,0.32
2023-03-25T08:42:01.534Z,0.20
2023-03-25T08:43:33.331Z,0.50
2023-03-25T08:45:06.512Z,0.25
2023-03-25T08:46:38.710Z,0.40
2023-03-25T08:48:10.721Z,0.50
2023-03-25T08:49:42.532Z,0.40
2023-03-25T08:51:14.294Z,0.40
2023-03-25T08:52:46.195Z,0.70
2023-03-25T08:54:18.009Z,0.35
2023-03-25T08:55:53.571Z,0.55
2023-03-25T08:57:25.565Z,0.38
2023-03-25T08:58:57.324Z,0.30
2023-03-25T09:00:29.499Z,0.38
2023-03-25T09:02:01.668Z,0.20
2023-03-25T09:03:34.144Z,0.20
2023-03-25T09:05:06.584Z,0.38
2023-03-25T09:06:48.078Z,0.30
2023-03-25T09:08:32.875Z,0.17
2023-03-25T09:10:05.959Z,0.17
2023-03-25T09:11:38.286Z,0.35
2023-03-25T09:13:10.091Z,0.13
2023-03-25T09:14:42.078Z,0.10
2023-03-25T09:16:14.098Z,0.20
2023-03-25T09:17:45.997Z,0.20
2023-03-25T09:19:17.806Z,0.20
2023-03-25T09:20:49.803Z,0.30
2023-03-25T09:22:21.626Z,0.20
2023-03-25T09:23:53.416Z,0.20
2023-03-25T09:25:25.985Z,0.20
2023-03-25T09:26:57.756Z,0.20
2023-03-25T09:28:29.902Z,0.38
2023-03-25T09:30:02.081Z,0.40
2023-03-25T09:31:34.061Z,0.30
2023-03-25T09:33:07.050Z,0.20
2023-03-25T09:34:39.661Z,0.15
2023-03-25T09:36:11.898Z,0.30
2023-03-25T09:37:44.665Z,0.10
2023-03-25T09:39:16.803Z,0.25
2023-03-25T09:40:49.180Z,0.10
2023-03-25T09:42:48.711Z,0.10
2023-03-25T09:44:57.263Z,0.15
2023-03-25T09:46:29.133Z,0.10
2023-03-25T09:48:19.412Z,0.20
2023-03-25T09:49:57.109Z,0.20
2023-03-25T09:51:36.726Z,0.20
2023-03-25T09:53:25.999Z,0.20
2023-03-25T09:55:03.400Z,0.20
2023-03-25T09:56:42.270Z,0.30
2023-03-25T09:58:34.616Z,0.28
2023-03-25T10:00:07.159Z,0.20
2023-03-25T10:01:57.353Z,0.40
2023-03-25T10:03:48.341Z,0.45
2023-03-25T10:05:39.564Z,0.20
2023-03-25T10:08:01.617Z,0.30
2023-03-25T10:11:31.026Z,0.20
2023-03-25T10:13:13.094Z,0.20
2023-03-25T10:15:15.726Z,0.22
2023-03-25T10:17:06.167Z,0.30
2023-03-25T10:19:03.756Z,0.30
2023-03-25T10:20:47.791Z,0.30
2023-03-25T10:22:28.521Z,0.30
2023-03-25T10:24:16.727Z,0.30
2023-03-25T10:25:57.421Z,0.30
2023-03-25T10:27:40.023Z,0.35
2023-03-25T10:29:20.821Z,0.30
2023-03-25T10:30:54.351Z,0.20
2023-03-25T10:32:40.486Z,0.20
2023-03-25T10:34:18.749Z,0.30
2023-03-25T10:35:56.210Z,0.30
2023-03-25T10:37:36.767Z,0.20
2023-03-25T10:39:21.574Z,0.28
2023-03-25T10:41:14.723Z,0.20
2023-03-25T10:42:58.458Z,0.20
2023-03-25T10:44:31.265Z,0.30
2023-03-25T10:46:15.280Z,0.10
2023-03-25T10:47:48.521Z,0.20
2023-03-25T10:49:28.570Z,0.22
2023-03-25T10:51:08.485Z,0.17
2023-03-25T10:52:40.562Z,0.15
2023-03-25T10:54:14.027Z,0.13
2023-03-25T10:55:48.173Z,0.30
2023-03-25T10:57:27.999Z,0.20
2023-03-25T10:59:07.634Z,0.20
2023-03-25T11:00:40.777Z,0.17
2023-03-25T11:02:27.387Z,0.13
2023-03-25T11:04:00.825Z,0.20
2023-03-25T11:05:34.188Z,0.20
2023-03-25T11:07:16.750Z,0.20
2023-03-25T11:09:14.217Z,0.20
2023-03-25T11:10:49.298Z,0.20
2023-03-25T11:12:33.233Z,0.20
2023-03-25T11:14:09.927Z,0.20
2023-03-25T11:15:42.745Z,0.20
2023-03-25T11:17:18.803Z,0.20
2023-03-25T11:18:53.189Z,0.30
2023-03-25T11:20:35.839Z,0.20
2023-03-25T11:22:19.080Z,0.20
2023-03-25T11:23:52.382Z,0.20
2023-03-25T11:25:29.476Z,0.22
2023-03-25T11:27:01.979Z,0.20
2023-03-25T11:28:46.683Z,0.10
2023-03-25T11:30:23.656Z,0.20
2023-03-25T11:31:59.024Z,0.20
2023-03-25T11:33:31.798Z,0.20
2023-03-25T11:35:14.214Z,0.10
2023-03-25T11:37:02.040Z,0.00
2023-03-25T11:38:38.424Z,0.10
2023-03-25T11:40:18.879Z,0.10
2023-03-25T11:41:52.200Z,0.10
2023-03-25T11:43:27.300Z,0.08
2023-03-25T11:45:01.163Z,0.13
2023-03-25T11:46:34.646Z,0.20
2023-03-25T11:48:15.903Z,0.28
2023-03-25T11:49:49.769Z,0.20
2023-03-25T11:51:32.787Z,0.20
2023-03-25T11:53:06.355Z,0.10
2023-03-25T11:54:38.597Z,0.10
2023-03-25T11:56:12.337Z,0.10
2023-03-25T11:57:46.666Z,0.10
2023-03-25T11:59:46.526Z,0.10
2023-03-25T12:01:41.352Z,0.13
2023-03-25T12:03:20.314Z,0.10
2023-03-25T12:04:57.111Z,0.20
2023-03-25T12:06:30.232Z,0.20
2023-03-25T12:08:20.202Z,0.13
2023-03-25T12:09:58.143Z,0.10
2023-03-25T12:11:42.642Z,0.10
2023-03-25T12:14:01.776Z,0.30
2023-03-25T12:15:45.237Z,0.25
2023-03-25T12:17:41.242Z,0.10
2023-03-25T12:19:27.658Z,0.10
2023-03-25T12:21:32.203Z,0.30
2023-03-25T12:23:39.596Z,0.20
2023-03-25T12:25:49.068Z,0.17
2023-03-25T12:27:36.244Z,0.20
2023-03-25T12:29:28.692Z,0.20
2023-03-25T12:31:18.138Z,0.20
2023-03-25T12:33:09.895Z,0.20
2023-03-25T12:34:59.825Z,0.20
2023-03-25T12:36:51.688Z,0.10
2023-03-25T12:38:26.844Z,0.22
2023-03-25T12:40:28.007Z,0.20
2023-03-25T12:42:18.965Z,0.10
2023-03-25T12:44:01.912Z,0.10
2023-03-25T12:46:08.407Z,0.10
2023-03-25T12:47:43.776Z,0.20
2023-03-25T12:49:49.444Z,0.20
2023-03-25T12:51:48.220Z,0.10
2023-03-25T12:54:14.234Z,0.10
2023-03-25T12:56:11.108Z,0.20
2023-03-25T12:58:12.896Z,0.10
2023-03-25T13:00:04.169Z,0.13
2023-03-25T13:02:04.090Z,0.05
2023-03-25T13:03:56.634Z,0.10
2023-03-25T13:05:56.809Z,0.17
2023-03-25T13:07:35.007Z,0.30
2023-03-25T13:09:18.234Z,0.10
2023-03-25T13:10:58.656Z,0.20
2023-03-25T13:12:33.795Z,0.10
2023-03-25T13:14:14.751Z,0.20
2023-03-25T13:15:58.477Z,0.10
2023-03-25T13:17:36.074Z,0.10
2023-03-25T13:19:14.610Z,0.20
2023-03-25T13:20:59.801Z,0.03
2023-03-25T13:22:39.871Z,0.20
2023-03-25T13:24:22.559Z,0.10
2023-03-25T13:25:59.454Z,0.20
2023-03-25T13:27:34.652Z,0.20
2023-03-25T13:29:26.404Z,0.10
2023-03-25T13:31:00.532Z,0.20
2023-03-25T13:32:48.283Z,0.10
2023-03-25T13:34:31.803Z,0.20
2023-03-25T13:36:26.197Z,0.20
2023-03-25T13:38:04.824Z,0.28
2023-03-25T13:40:12.245Z,0.22
2023-03-25T13:41:52.092Z,0.20
2023-03-25T13:43:36.364Z,0.17
2023-03-25T13:45:17.615Z,0.30
2023-03-25T13:46:58.884Z,0.15
2023-03-25T13:50:30.708Z,0.30
2023-03-25T13:52:02.748Z,0.28
2023-03-25T13:53:39.818Z,0.35
2023-03-25T13:55:30.116Z,0.15
2023-03-25T13:57:09.355Z,0.20
2023-03-25T13:58:53.270Z,0.30
2023-03-25T14:00:52.858Z,0.20
2023-03-25T14:02:34.599Z,0.25
2023-03-25T14:06:21.279Z,0.20
2023-03-25T14:08:14.870Z,0.40
2023-03-25T14:10:22.119Z,0.20
2023-03-25T14:11:59.731Z,0.47
2023-03-25T14:13:38.688Z,0.52
2023-03-25T14:15:22.470Z,0.50
2023-03-25T14:16:58.764Z,0.50
2023-03-25T14:18:32.389Z,0.60
2023-03-25T14:20:08.750Z,0.73
2023-03-25T14:21:44.735Z,0.55
2023-03-25T14:23:21.170Z,0.60
2023-03-25T14:24:53.957Z,0.40
2023-03-25T14:26:26.431Z,0.22
2023-03-25T14:27:58.387Z,0.30
2023-03-25T14:29:42.127Z,0.30
2023-03-25T14:31:14.310Z,0.50
2023-03-25T14:32:46.893Z,0.40
2023-03-25T14:34:23.694Z,0.47
2023-03-25T14:35:56.375Z,0.10
2023-03-25T14:37:30.693Z,0.10
2023-03-25T14:39:02.503Z,0.20
2023-03-25T14:40:54.563Z,0.00
2023-03-25T14:42:43.306Z,0.00
2023-03-25T14:44:19.504Z,0.00
2023-03-25T14:46:06.478Z,0.00
2023-03-25T14:47:52.203Z,0.00
2023-03-25T14:49:30.308Z,0.00
2023-03-25T14:51:27.577Z,0.03
2023-03-25T14:53:06.657Z,0.13
2023-03-25T14:54:41.562Z,0.08
2023-03-25T14:56:19.885Z,0.10
2023-03-25T14:57:59.482Z,0.10
2023-03-25T14:59:37.082Z,0.00
2023-03-25T15:01:14.910Z,0.30
2023-03-25T15:02:53.452Z,0.08
2023-03-25T15:04:31.649Z,0.00
2023-03-25T15:06:05.175Z,0.20
2023-03-25T15:07:43.506Z,0.10
2023-03-25T15:09:17.427Z,0.10
2023-03-25T15:11:02.652Z,0.10
2023-03-25T15:12:38.829Z,0.00
2023-03-25T15:14:17.308Z,0.10
2023-03-25T15:15:50.993Z,0.10
2023-03-25T15:17:46.405Z,0.10
2023-03-25T15:19:19.892Z,0.10
2023-03-25T15:20:52.439Z,0.20
2023-03-25T15:22:24.559Z,0.10
2023-03-25T15:24:10.301Z,0.00
2023-03-25T15:25:43.787Z,0.10
2023-03-25T15:27:46.239Z,0.13
2023-03-25T15:29:31.762Z,0.20
2023-03-25T15:31:29.407Z,0.10
2023-03-25T15:33:07.581Z,0.20
2023-03-25T15:35:10.477Z,0.10
2023-03-25T15:36:48.083Z,0.20
2023-03-25T15:39:01.542Z,0.20
2023-03-25T15:41:00.669Z,0.20
2023-03-25T15:42:51.673Z,0.20
2023-03-25T15:44:42.364Z,0.40
2023-03-25T15:46:28.613Z,0.30
2023-03-25T15:48:27.556Z,0.30
2023-03-25T15:50:24.093Z,0.30
2023-03-25T15:52:29.626Z,0.40
2023-03-25T15:54:33.099Z,0.30
2023-03-25T15:56:16.689Z,0.30
2023-03-25T15:57:59.416Z,0.30
2023-03-25T15:59:36.195Z,0.20
2023-03-25T16:01:24.672Z,0.30
2023-03-25T16:03:02.624Z,0.40
2023-03-25T16:04:44.253Z,0.32
2023-03-25T16:06:17.980Z,0.20
2023-03-25T16:07:50.255Z,0.30
2023-03-25T16:09:28.511Z,0.30
2023-03-25T16:11:19.209Z,0.28
2023-03-25T16:12:51.117Z,0.20
2023-03-25T16:14:22.930Z,0.30
2023-03-25T16:15:58.301Z,0.30
2023-03-25T16:17:34.334Z,0.13
2023-03-25T16:19:12.034Z,0.30
2023-03-25T16:20:46.151Z,0.15
2023-03-25T16:22:28.403Z,0.10
2023-03-25T16:24:05.216Z,0.20
2023-03-25T16:25:41.154Z,0.40
2023-03-25T16:27:21.591Z,0.30
2023-03-25T16:28:53.479Z,0.20
2023-03-25T16:30:37.036Z,0.25
2023-03-25T16:32:19.283Z,0.35
2023-03-25T16:33:52.044Z,0.20
2023-03-25T16:35:26.349Z,0.20
2023-03-25T16:36:58.233Z,0.25
2023-03-25T16:38:31.691Z,0.30
2023-03-25T16:40:06.372Z,0.20
2023-03-25T16:41:38.534Z,0.40
2023-03-25T16:43:17.800Z,0.20
2023-03-25T16:44:49.803Z,0.13
2023-03-25T16:46:23.744Z,0.28
2023-03-25T16:47:56.859Z,0.40
2023-03-25T16:49:34.301Z,0.20
2023-03-25T16:51:13.697Z,0.20
2023-03-25T16:52:46.371Z,0.20
2023-03-25T16:55:08.114Z,0.40
2023-03-25T16:56:40.618Z,0.20
2023-03-25T16:58:22.644Z,0.20
2023-03-25T16:59:56.259Z,0.30
2023-03-25T17:01:32.316Z,0.30
2023-03-25T17:03:06.165Z,0.20
2023-03-25T17:04:42.302Z,0.30
2023-03-25T17:06:30.700Z,0.40
2023-03-25T17:08:04.954Z,0.25
2023-03-25T17:09:40.344Z,0.40
2023-03-25T17:11:13.491Z,0.45
2023-03-25T17:12:50.216Z,0.35
2023-03-25T17:14:28.716Z,0.43
2023-03-25T17:16:01.043Z,0.40
2023-03-25T17:17:48.936Z,0.40
2023-03-25T17:19:23.315Z,0.50
2023-03-25T17:20:58.364Z,0.50
2023-03-25T17:22:35.352Z,0.40
2023-03-25T17:24:23.627Z,0.40
2023-03-25T17:26:02.984Z,0.50
2023-03-25T17:27:38.835Z,0.43
2023-03-25T17:29:12.780Z,0.50
2023-03-25T17:30:45.463Z,0.35
2023-03-25T17:32:18.419Z,0.52
2023-03-25T17:33:58.860Z,0.50
2023-03-25T17:35:31.742Z,0.60
2023-03-25T17:37:04.078Z,0.40
2023-03-25T17:38:41.382Z,0.70
2023-03-25T17:40:21.510Z,0.22
2023-03-25T17:42:24.872Z,0.52
2023-03-25T17:43:57.723Z,0.40
2023-03-25T17:45:29.829Z,0.43
2023-03-25T17:47:01.944Z,0.40
2023-03-25T17:48:34.261Z,0.40
2023-03-25T17:50:21.798Z,0.60
2023-03-25T17:51:53.681Z,0.50
2023-03-25T17:53:26.403Z,0.60
2023-03-25T17:54:58.178Z,0.60
2023-03-25T17:56:30.204Z,0.52
2023-03-25T17:58:02.122Z,0.40
2023-03-25T17:59:34.343Z,0.50
2023-03-25T18:01:06.692Z,0.70
2023-03-25T18:02:41.091Z,0.57
2023-03-25T18:04:15.049Z,0.65
2023-03-25T18:05:51.057Z,0.52
2023-03-25T18:07:23.216Z,0.82
2023-03-25T18:08:55.158Z,0.52
2023-03-25T18:10:27.734Z,0.73
2023-03-25T18:12:00.820Z,0.80
2023-03-25T18:13:32.599Z,0.88
2023-03-25T18:15:04.734Z,0.77
2023-03-25T18:16:36.749Z,0.90
2023-03-25T18:18:14.671Z,0.70
2023-03-25T18:19:46.597Z,1.10
2023-03-25T18:21:19.742Z,0.63
2023-03-25T18:24:23.536Z,0.70
2023-03-25T18:25:56.411Z,0.75
2023-03-25T18:27:40.888Z,0.57
2023-03-25T18:29:19.950Z,0.73
2023-03-25T18:30:57.133Z,0.50
2023-03-25T18:32:29.626Z,0.70
2023-03-25T18:34:01.712Z,0.63
2023-03-25T18:35:34.167Z,0.70
2023-03-25T18:37:06.245Z,0.63
2023-03-25T18:38:38.132Z,0.63
2023-03-25T18:40:24.541Z,0.50
2023-03-25T18:41:56.322Z,0.60
2023-03-25T18:43:28.605Z,0.60
2023-03-25T18:45:00.505Z,0.50
2023-03-25T18:46:32.768Z,0.40
2023-03-25T18:48:06.332Z,0.30
2023-03-25T18:49:38.996Z,0.45
2023-03-25T18:51:14.856Z,0.50
2023-03-25T18:52:46.901Z,0.43
2023-03-25T18:54:19.478Z,0.73
2023-03-25T18:55:51.823Z,0.40
2023-03-25T18:57:25.627Z,0.47
2023-03-25T18:58:57.393Z,0.40
2023-03-25T19:00:35.808Z,0.40
2023-03-25T19:02:07.697Z,0.50
2023-03-25T19:03:39.781Z,0.40
2023-03-25T19:05:13.247Z,0.57
2023-03-25T19:06:45.031Z,0.47
2023-03-25T19:08:20.420Z,0.50
2023-03-25T19:09:53.509Z,0.52
2023-03-25T19:11:26.490Z,0.40
2023-03-25T19:12:59.527Z,0.60
2023-03-25T19:14:31.387Z,0.45
2023-03-25T19:16:03.872Z,0.50
2023-03-25T19:17:36.127Z,0.50
2023-03-25T19:19:08.955Z,0.82
2023-03-25T19:20:43.747Z,0.75
2023-03-25T19:22:16.509Z,0.70
2023-03-25T19:23:48.373Z,0.52
2023-03-25T19:25:20.582Z,0.60
2023-03-25T19:26:52.806Z,0.60
2023-03-25T19:28:25.125Z,0.80
2023-03-25T19:29:57.184Z,0.57
2023-03-25T19:31:30.717Z,0.50
2023-03-25T19:33:04.004Z,0.65
2023-03-25T19:34:35.893Z,0.60
2023-03-25T19:36:08.403Z,0.55
2023-03-25T19:37:47.588Z,0.60
2023-03-25T19:39:23.120Z,0.40
2023-03-25T19:41:11.373Z,0.40
2023-03-25T19:42:43.167Z,0.57
2023-03-25T19:44:15.722Z,0.68
2023-03-25T19:45:47.534Z,0.60
2023-03-25T19:47:19.311Z,0.43
2023-03-25T19:48:52.256Z,0.60
2023-03-25T19:50:30.661Z,0.40
2023-03-25T19:52:02.777Z,0.40
2023-03-25T19:53:34.828Z,0.40
2023-03-25T19:55:08.415Z,0.65
2023-03-25T19:56:40.518Z,0.20
2023-03-25T19:58:12.293Z,0.30
2023-03-25T19:59:44.967Z,0.35
2023-03-25T20:01:17.239Z,0.30
2023-03-25T20:02:52.452Z,0.25
2023-03-25T20:04:24.576Z,0.30
2023-03-25T20:05:57.605Z,0.20
2023-03-25T20:07:29.401Z,0.10
2023-03-25T20:09:01.217Z,0.38
2023-03-25T20:10:33.876Z,0.35
2023-03-25T20:12:06.136Z,0.22
2023-03-25T20:13:38.565Z,0.40
2023-03-25T20:15:15.249Z,0.50
2023-03-25T20:16:47.090Z,0.40
2023-03-25T20:18:18.874Z,0.20
2023-03-25T20:19:51.625Z,0.20
2023-03-25T20:21:25.027Z,0.22
2023-03-25T20:22:56.916Z,0.10
2023-03-25T20:24:29.112Z,0.17
2023-03-25T20:26:01.027Z,0.22
2023-03-25T20:27:33.638Z,0.17
2023-03-25T20:29:05.870Z,0.40
2023-03-25T20:30:37.663Z,0.10
2023-03-25T20:32:09.508Z,0.20
2023-03-25T20:33:41.364Z,0.15
2023-03-25T20:35:14.297Z,0.10
2023-03-25T20:36:46.776Z,0.10
2023-03-25T20:38:19.466Z,0.13
2023-03-25T20:39:51.751Z,0.20
2023-03-25T20:41:24.229Z,0.20
2023-03-25T20:42:56.604Z,0.30
2023-03-25T20:44:29.350Z,0.40
2023-03-25T20:46:01.853Z,0.10
2023-03-25T20:47:34.492Z,0.30
2023-03-25T20:49:09.111Z,0.20
2023-03-25T20:50:40.930Z,0.30
2023-03-25T20:52:13.095Z,0.28
2023-03-25T20:53:46.578Z,0.20
2023-03-25T20:55:19.676Z,0.30
2023-03-25T20:56:51.960Z,0.20
2023-03-25T20:58:25.675Z,0.50
2023-03-25T20:59:58.239Z,0.20
2023-03-25T21:01:30.390Z,0.20
2023-03-25T21:03:02.251Z,0.30
2023-03-25T21:04:34.065Z,0.40
2023-03-25T21:06:16.705Z,0.40
2023-03-25T21:07:55.139Z,0.28
2023-03-25T21:09:27.465Z,0.30
2023-03-25T21:11:01.727Z,0.32
2023-03-25T21:12:43.768Z,0.35
2023-03-25T21:14:16.483Z,0.30
2023-03-25T21:15:53.804Z,0.30
2023-03-25T21:17:26.005Z,0.30
2023-03-25T21:19:01.960Z,0.35
2023-03-25T21:20:33.909Z,0.20
2023-03-25T21:22:06.685Z,0.28
2023-03-25T21:23:42.988Z,0.30
2023-03-25T21:25:15.213Z,0.30
2023-03-25T21:26:47.061Z,0.25
2023-03-25T21:28:19.329Z,0.45
2023-03-25T21:29:51.121Z,0.52
2023-03-25T21:31:23.291Z,0.47
2023-03-25T21:32:55.580Z,0.50
2023-03-25T21:34:30.411Z,0.38
2023-03-25T21:36:02.402Z,0.45
2023-03-25T21:37:38.089Z,0.30
2023-03-25T21:39:10.802Z,0.40
2023-03-25T21:40:42.986Z,0.45
2023-03-25T21:42:14.779Z,0.57
2023-03-25T21:43:47.673Z,0.55
2023-03-25T21:45:19.696Z,0.40
2023-03-25T21:46:53.526Z,0.32
2023-03-25T21:48:25.618Z,0.60
2023-03-25T21:49:57.449Z,0.40
2023-03-25T21:51:36.122Z,0.63
2023-03-25T21:53:13.381Z,0.80
2023-03-25T21:54:45.469Z,0.73
2023-03-25T21:56:20.403Z,0.85
2023-03-25T21:57:52.429Z,0.47
2023-03-25T21:59:24.656Z,0.70